sensor_id;sensor_type;location;lat;lon;timestamp;temperature;humidity
37678;DHT22;23517;50.390;8.616;2023-06-26T00:00:03;18.40;45.00
37678;DHT22;23517;50.390;8.616;2023-06-26T00:02:31;18.40;45.20
37678;DHT22;23517;50.390;8.616;2023-06-26T00:04:59;18.40;45.00
37678;DHT22;23517;50.390;8.616;2023-06-26T00:07:29;18.50;45.00
37678;DHT22;23517;50.390;8.616;2023-06-26T00:09:57;18.50;45.00
37678;DHT22;23517;50.390;8.616;2023-06-26T00:12:25;18.50;45.10
37678;DHT22;23517;50.390;8.616;2023-06-26T00:14:52;18.40;45.10
37678;DHT22;23517;50.390;8.616;2023-06-26T00:17:19;18.40;45.20
37678;DHT22;23517;50.390;8.616;2023-06-26T00:19:46;18.50;45.30
37678;DHT22;23517;50.390;8.616;2023-06-26T00:22:13;18.20;45.60
37678;DHT22;23517;50.390;8.616;2023-06-26T00:24:40;18.20;46.00
37678;DHT22;23517;50.390;8.616;2023-06-26T00:27:06;18.20;45.80
37678;DHT22;23517;50.390;8.616;2023-06-26T00:29:33;18.20;46.20
37678;DHT22;23517;50.390;8.616;2023-06-26T00:32:00;18.20;46.20
37678;DHT22;23517;50.390;8.616;2023-06-26T00:34:27;18.20;46.10
37678;DHT22;23517;50.390;8.616;2023-06-26T00:36:53;18.30;46.00
37678;DHT22;23517;50.390;8.616;2023-06-26T00:39:20;18.30;46.10
37678;DHT22;23517;50.390;8.616;2023-06-26T00:41:47;18.20;46.10
37678;DHT22;23517;50.390;8.616;2023-06-26T00:44:14;18.20;46.00
37678;DHT22;23517;50.390;8.616;2023-06-26T00:46:41;18.20;45.90
37678;DHT22;23517;50.390;8.616;2023-06-26T00:49:08;18.20;46.00
37678;DHT22;23517;50.390;8.616;2023-06-26T00:51:35;18.30;45.90
37678;DHT22;23517;50.390;8.616;2023-06-26T00:54:02;18.30;46.00
37678;DHT22;23517;50.390;8.616;2023-06-26T00:56:29;18.30;46.10
37678;DHT22;23517;50.390;8.616;2023-06-26T00:58:58;18.20;46.10
37678;DHT22;23517;50.390;8.616;2023-06-26T01:01:24;18.10;46.50
37678;DHT22;23517;50.390;8.616;2023-06-26T01:03:53;18.10;46.70
37678;DHT22;23517;50.390;8.616;2023-06-26T01:06:22;18.10;46.80
37678;DHT22;23517;50.390;8.616;2023-06-26T01:08:51;18.00;46.90
37678;DHT22;23517;50.390;8.616;2023-06-26T01:11:18;18.00;47.10
37678;DHT22;23517;50.390;8.616;2023-06-26T01:13:45;18.00;47.30
37678;DHT22;23517;50.390;8.616;2023-06-26T01:16:12;17.90;47.80
37678;DHT22;23517;50.390;8.616;2023-06-26T01:21:09;17.70;48.10
37678;DHT22;23517;50.390;8.616;2023-06-26T01:26:27;17.50;49.50
37678;DHT22;23517;50.390;8.616;2023-06-26T01:28:57;17.30;49.90
37678;DHT22;23517;50.390;8.616;2023-06-26T01:31:26;17.20;50.60
37678;DHT22;23517;50.390;8.616;2023-06-26T01:33:54;17.10;50.90
37678;DHT22;23517;50.390;8.616;2023-06-26T01:36:22;17.20;50.90
37678;DHT22;23517;50.390;8.616;2023-06-26T01:38:49;17.10;51.70
37678;DHT22;23517;50.390;8.616;2023-06-26T01:41:15;17.10;51.90
37678;DHT22;23517;50.390;8.616;2023-06-26T01:46:57;17.10;51.80
37678;DHT22;23517;50.390;8.616;2023-06-26T01:57:47;17.10;52.10
37678;DHT22;23517;50.390;8.616;2023-06-26T02:00:16;17.10;52.20
37678;DHT22;23517;50.390;8.616;2023-06-26T02:02:47;17.10;52.00
37678;DHT22;23517;50.390;8.616;2023-06-26T02:05:14;17.10;51.90
37678;DHT22;23517;50.390;8.616;2023-06-26T02:07:41;17.10;51.70
37678;DHT22;23517;50.390;8.616;2023-06-26T02:10:09;17.10;51.60
37678;DHT22;23517;50.390;8.616;2023-06-26T02:12:36;17.00;51.90
37678;DHT22;23517;50.390;8.616;2023-06-26T02:15:08;17.10;52.20
37678;DHT22;23517;50.390;8.616;2023-06-26T02:17:35;17.10;52.00
37678;DHT22;23517;50.390;8.616;2023-06-26T02:20:02;17.10;52.10
37678;DHT22;23517;50.390;8.616;2023-06-26T02:22:29;17.10;52.10
37678;DHT22;23517;50.390;8.616;2023-06-26T02:24:56;17.10;51.80
37678;DHT22;23517;50.390;8.616;2023-06-26T02:27:23;17.10;51.40
37678;DHT22;23517;50.390;8.616;2023-06-26T02:29:49;17.00;51.80
37678;DHT22;23517;50.390;8.616;2023-06-26T02:32:16;17.00;52.10
37678;DHT22;23517;50.390;8.616;2023-06-26T02:34:43;17.00;52.10
37678;DHT22;23517;50.390;8.616;2023-06-26T02:37:09;17.00;52.00
37678;DHT22;23517;50.390;8.616;2023-06-26T02:39:36;16.90;52.10
37678;DHT22;23517;50.390;8.616;2023-06-26T02:42:03;17.00;52.40
37678;DHT22;23517;50.390;8.616;2023-06-26T02:44:30;17.00;52.30
37678;DHT22;23517;50.390;8.616;2023-06-26T02:46:57;17.00;52.20
37678;DHT22;23517;50.390;8.616;2023-06-26T02:49:24;17.00;52.00
37678;DHT22;23517;50.390;8.616;2023-06-26T02:51:50;16.90;52.10
37678;DHT22;23517;50.390;8.616;2023-06-26T02:54:17;16.90;52.50
37678;DHT22;23517;50.390;8.616;2023-06-26T02:56:44;16.80;52.40
37678;DHT22;23517;50.390;8.616;2023-06-26T02:59:14;16.80;52.20
37678;DHT22;23517;50.390;8.616;2023-06-26T03:01:41;16.80;52.60
37678;DHT22;23517;50.390;8.616;2023-06-26T03:04:07;16.80;52.60
37678;DHT22;23517;50.390;8.616;2023-06-26T03:06:34;16.80;52.50
37678;DHT22;23517;50.390;8.616;2023-06-26T03:09:01;16.80;52.40
37678;DHT22;23517;50.390;8.616;2023-06-26T03:11:30;16.80;52.40
37678;DHT22;23517;50.390;8.616;2023-06-26T03:13:57;16.80;52.40
37678;DHT22;23517;50.390;8.616;2023-06-26T03:16:23;16.70;52.20
37678;DHT22;23517;50.390;8.616;2023-06-26T03:18:50;16.70;52.50
37678;DHT22;23517;50.390;8.616;2023-06-26T03:21:17;16.80;52.40
37678;DHT22;23517;50.390;8.616;2023-06-26T03:23:44;16.70;52.40
37678;DHT22;23517;50.390;8.616;2023-06-26T03:26:10;16.70;52.40
37678;DHT22;23517;50.390;8.616;2023-06-26T03:28:37;16.70;52.60
37678;DHT22;23517;50.390;8.616;2023-06-26T03:31:05;16.70;52.60
37678;DHT22;23517;50.390;8.616;2023-06-26T03:33:31;16.70;52.40
37678;DHT22;23517;50.390;8.616;2023-06-26T03:35:58;16.70;52.40
37678;DHT22;23517;50.390;8.616;2023-06-26T03:38:25;16.70;52.40
37678;DHT22;23517;50.390;8.616;2023-06-26T03:40:52;16.70;52.70
37678;DHT22;23517;50.390;8.616;2023-06-26T03:43:19;16.70;52.70
37678;DHT22;23517;50.390;8.616;2023-06-26T03:45:45;16.70;52.70
37678;DHT22;23517;50.390;8.616;2023-06-26T03:48:13;16.70;52.60
37678;DHT22;23517;50.390;8.616;2023-06-26T03:50:40;16.80;52.30
37678;DHT22;23517;50.390;8.616;2023-06-26T03:53:10;16.60;52.70
37678;DHT22;23517;50.390;8.616;2023-06-26T03:55:37;16.40;53.50
37678;DHT22;23517;50.390;8.616;2023-06-26T03:58:05;16.40;53.90
37678;DHT22;23517;50.390;8.616;2023-06-26T04:00:31;16.50;54.20
37678;DHT22;23517;50.390;8.616;2023-06-26T04:02:58;16.50;54.00
37678;DHT22;23517;50.390;8.616;2023-06-26T04:05:25;16.50;53.90
37678;DHT22;23517;50.390;8.616;2023-06-26T04:07:52;16.50;54.20
37678;DHT22;23517;50.390;8.616;2023-06-26T04:10:19;16.60;53.60
37678;DHT22;23517;50.390;8.616;2023-06-26T04:12:48;16.30;54.50
37678;DHT22;23517;50.390;8.616;2023-06-26T04:15:15;16.40;54.90
37678;DHT22;23517;50.390;8.616;2023-06-26T04:17:42;16.40;55.20
37678;DHT22;23517;50.390;8.616;2023-06-26T04:20:09;16.50;54.90
37678;DHT22;23517;50.390;8.616;2023-06-26T04:22:35;16.50;54.50
37678;DHT22;23517;50.390;8.616;2023-06-26T04:25:03;16.60;54.30
37678;DHT22;23517;50.390;8.616;2023-06-26T04:27:30;16.60;54.40
37678;DHT22;23517;50.390;8.616;2023-06-26T04:29:57;16.60;54.60
37678;DHT22;23517;50.390;8.616;2023-06-26T04:32:24;16.60;54.60
37678;DHT22;23517;50.390;8.616;2023-06-26T04:34:51;16.70;54.70
37678;DHT22;23517;50.390;8.616;2023-06-26T04:37:17;16.80;54.40
37678;DHT22;23517;50.390;8.616;2023-06-26T04:39:44;16.80;54.50
37678;DHT22;23517;50.390;8.616;2023-06-26T04:42:11;17.00;54.50
37678;DHT22;23517;50.390;8.616;2023-06-26T04:44:38;17.00;54.40
37678;DHT22;23517;50.390;8.616;2023-06-26T04:47:08;17.30;53.30
37678;DHT22;23517;50.390;8.616;2023-06-26T04:49:35;17.90;52.00
37678;DHT22;23517;50.390;8.616;2023-06-26T04:52:04;18.60;47.50
37678;DHT22;23517;50.390;8.616;2023-06-26T04:54:31;19.30;45.20
37678;DHT22;23517;50.390;8.616;2023-06-26T04:56:58;19.60;43.30
37678;DHT22;23517;50.390;8.616;2023-06-26T04:59:26;19.90;41.60
37678;DHT22;23517;50.390;8.616;2023-06-26T05:01:53;20.00;41.50
37678;DHT22;23517;50.390;8.616;2023-06-26T05:04:19;20.20;40.50
37678;DHT22;23517;50.390;8.616;2023-06-26T05:06:46;20.50;39.60
37678;DHT22;23517;50.390;8.616;2023-06-26T05:09:13;20.50;39.90
37678;DHT22;23517;50.390;8.616;2023-06-26T05:11:40;20.60;39.70
37678;DHT22;23517;50.390;8.616;2023-06-26T05:14:09;21.30;37.80
37678;DHT22;23517;50.390;8.616;2023-06-26T05:16:36;21.40;37.60
37678;DHT22;23517;50.390;8.616;2023-06-26T05:19:02;21.00;38.90
37678;DHT22;23517;50.390;8.616;2023-06-26T05:21:29;20.50;40.50
37678;DHT22;23517;50.390;8.616;2023-06-26T05:23:57;20.70;40.00
37678;DHT22;23517;50.390;8.616;2023-06-26T05:26:25;21.20;38.80
37678;DHT22;23517;50.390;8.616;2023-06-26T05:28:53;21.30;38.40
37678;DHT22;23517;50.390;8.616;2023-06-26T05:31:20;21.30;39.30
37678;DHT22;23517;50.390;8.616;2023-06-26T05:33:48;21.50;39.20
37678;DHT22;23517;50.390;8.616;2023-06-26T05:36:16;22.10;37.80
37678;DHT22;23517;50.390;8.616;2023-06-26T05:38:45;22.30;37.70
37678;DHT22;23517;50.390;8.616;2023-06-26T05:41:12;22.70;36.70
37678;DHT22;23517;50.390;8.616;2023-06-26T05:43:39;23.00;36.40
37678;DHT22;23517;50.390;8.616;2023-06-26T05:46:06;23.50;35.10
37678;DHT22;23517;50.390;8.616;2023-06-26T05:48:33;24.00;33.80
37678;DHT22;23517;50.390;8.616;2023-06-26T05:51:00;25.30;31.50
37678;DHT22;23517;50.390;8.616;2023-06-26T05:53:27;26.40;29.30
37678;DHT22;23517;50.390;8.616;2023-06-26T05:55:54;27.40;26.40
37678;DHT22;23517;50.390;8.616;2023-06-26T05:58:23;28.70;24.60
37678;DHT22;23517;50.390;8.616;2023-06-26T06:00:50;29.80;20.80
37678;DHT22;23517;50.390;8.616;2023-06-26T06:03:17;30.10;21.70
37678;DHT22;23517;50.390;8.616;2023-06-26T06:05:43;30.80;19.80
37678;DHT22;23517;50.390;8.616;2023-06-26T06:08:10;31.40;19.90
37678;DHT22;23517;50.390;8.616;2023-06-26T06:10:37;32.70;17.40
37678;DHT22;23517;50.390;8.616;2023-06-26T06:13:04;32.60;16.80
37678;DHT22;23517;50.390;8.616;2023-06-26T06:15:31;32.60;17.00
37678;DHT22;23517;50.390;8.616;2023-06-26T06:17:57;32.90;16.00
37678;DHT22;23517;50.390;8.616;2023-06-26T06:20:25;33.30;15.80
37678;DHT22;23517;50.390;8.616;2023-06-26T06:22:51;32.90;15.90
37678;DHT22;23517;50.390;8.616;2023-06-26T06:25:19;33.30;15.90
37678;DHT22;23517;50.390;8.616;2023-06-26T06:27:45;33.10;16.50
37678;DHT22;23517;50.390;8.616;2023-06-26T06:30:12;33.70;15.90
37678;DHT22;23517;50.390;8.616;2023-06-26T06:32:39;35.00;14.30
37678;DHT22;23517;50.390;8.616;2023-06-26T06:35:06;35.40;13.30
37678;DHT22;23517;50.390;8.616;2023-06-26T06:37:37;35.70;12.70
37678;DHT22;23517;50.390;8.616;2023-06-26T06:40:05;35.40;13.50
37678;DHT22;23517;50.390;8.616;2023-06-26T06:42:33;34.80;13.70
37678;DHT22;23517;50.390;8.616;2023-06-26T06:45:04;34.70;13.90
37678;DHT22;23517;50.390;8.616;2023-06-26T06:47:32;35.00;13.90
37678;DHT22;23517;50.390;8.616;2023-06-26T06:50:00;34.90;14.10
37678;DHT22;23517;50.390;8.616;2023-06-26T06:52:38;35.30;14.20
37678;DHT22;23517;50.390;8.616;2023-06-26T06:55:07;35.30;14.30
37678;DHT22;23517;50.390;8.616;2023-06-26T06:57:38;34.80;14.50
37678;DHT22;23517;50.390;8.616;2023-06-26T07:00:10;34.20;15.90
37678;DHT22;23517;50.390;8.616;2023-06-26T07:02:39;34.20;15.50
37678;DHT22;23517;50.390;8.616;2023-06-26T07:05:08;35.30;14.00
37678;DHT22;23517;50.390;8.616;2023-06-26T07:07:36;35.00;14.20
37678;DHT22;23517;50.390;8.616;2023-06-26T07:10:06;34.40;15.20
37678;DHT22;23517;50.390;8.616;2023-06-26T07:12:35;34.00;15.70
37678;DHT22;23517;50.390;8.616;2023-06-26T07:15:03;34.60;15.00
37678;DHT22;23517;50.390;8.616;2023-06-26T07:17:32;34.80;14.70
37678;DHT22;23517;50.390;8.616;2023-06-26T07:20:00;34.80;15.00
37678;DHT22;23517;50.390;8.616;2023-06-26T07:22:32;35.20;14.70
37678;DHT22;23517;50.390;8.616;2023-06-26T07:24:58;35.00;14.90
37678;DHT22;23517;50.390;8.616;2023-06-26T07:27:25;35.20;14.90
37678;DHT22;23517;50.390;8.616;2023-06-26T07:29:52;35.70;13.50
37678;DHT22;23517;50.390;8.616;2023-06-26T07:32:18;35.80;13.80
37678;DHT22;23517;50.390;8.616;2023-06-26T07:34:45;36.00;14.40
37678;DHT22;23517;50.390;8.616;2023-06-26T07:37:12;36.30;12.60
37678;DHT22;23517;50.390;8.616;2023-06-26T07:39:38;36.30;11.90
37678;DHT22;23517;50.390;8.616;2023-06-26T07:42:05;35.80;11.30
37678;DHT22;23517;50.390;8.616;2023-06-26T07:44:32;34.70;10.20
37678;DHT22;23517;50.390;8.616;2023-06-26T07:46:58;34.70;10.70
37678;DHT22;23517;50.390;8.616;2023-06-26T07:49:25;35.10;10.40
37678;DHT22;23517;50.390;8.616;2023-06-26T07:51:52;35.00;10.40
37678;DHT22;23517;50.390;8.616;2023-06-26T07:54:18;34.40;10.30
37678;DHT22;23517;50.390;8.616;2023-06-26T07:56:58;33.20;10.80
37678;DHT22;23517;50.390;8.616;2023-06-26T07:59:30;33.80;10.40
37678;DHT22;23517;50.390;8.616;2023-06-26T08:01:57;35.00;10.70
37678;DHT22;23517;50.390;8.616;2023-06-26T08:04:25;36.60;9.40
37678;DHT22;23517;50.390;8.616;2023-06-26T08:06:54;37.00;8.60
37678;DHT22;23517;50.390;8.616;2023-06-26T08:09:25;36.00;9.90
37678;DHT22;23517;50.390;8.616;2023-06-26T08:14:21;33.50;10.00
37678;DHT22;23517;50.390;8.616;2023-06-26T08:16:48;31.80;12.10
37678;DHT22;23517;50.390;8.616;2023-06-26T08:19:15;31.10;13.20
37678;DHT22;23517;50.390;8.616;2023-06-26T08:21:44;30.60;13.20
37678;DHT22;23517;50.390;8.616;2023-06-26T08:24:12;30.30;14.00
37678;DHT22;23517;50.390;8.616;2023-06-26T08:26:39;30.20;14.50
37678;DHT22;23517;50.390;8.616;2023-06-26T08:29:06;29.80;14.70
37678;DHT22;23517;50.390;8.616;2023-06-26T08:31:39;29.50;15.00
37678;DHT22;23517;50.390;8.616;2023-06-26T08:34:07;28.70;16.30
37678;DHT22;23517;50.390;8.616;2023-06-26T08:36:34;28.90;16.80
37678;DHT22;23517;50.390;8.616;2023-06-26T08:39:01;30.70;15.00
37678;DHT22;23517;50.390;8.616;2023-06-26T08:41:29;32.80;13.50
37678;DHT22;23517;50.390;8.616;2023-06-26T08:43:55;34.60;11.80
37678;DHT22;23517;50.390;8.616;2023-06-26T08:46:22;36.10;10.30
37678;DHT22;23517;50.390;8.616;2023-06-26T08:48:55;37.20;9.90
37678;DHT22;23517;50.390;8.616;2023-06-26T08:51:24;37.50;9.10
37678;DHT22;23517;50.390;8.616;2023-06-26T08:54:01;37.60;9.40
37678;DHT22;23517;50.390;8.616;2023-06-26T08:56:36;37.90;9.40
37678;DHT22;23517;50.390;8.616;2023-06-26T08:59:05;37.20;10.20
37678;DHT22;23517;50.390;8.616;2023-06-26T09:01:32;37.60;10.10
37678;DHT22;23517;50.390;8.616;2023-06-26T09:03:59;37.40;10.70
37678;DHT22;23517;50.390;8.616;2023-06-26T09:06:26;37.30;10.80
37678;DHT22;23517;50.390;8.616;2023-06-26T09:08:53;36.40;12.00
37678;DHT22;23517;50.390;8.616;2023-06-26T09:11:30;36.20;12.40
37678;DHT22;23517;50.390;8.616;2023-06-26T09:13:56;36.50;11.60
37678;DHT22;23517;50.390;8.616;2023-06-26T09:16:27;35.40;12.40
37678;DHT22;23517;50.390;8.616;2023-06-26T09:18:55;34.20;14.00
37678;DHT22;23517;50.390;8.616;2023-06-26T09:21:23;33.70;15.10
37678;DHT22;23517;50.390;8.616;2023-06-26T09:23:52;33.50;15.40
37678;DHT22;23517;50.390;8.616;2023-06-26T09:26:21;34.60;13.60
37678;DHT22;23517;50.390;8.616;2023-06-26T09:28:49;35.60;12.60
37678;DHT22;23517;50.390;8.616;2023-06-26T09:31:16;36.40;12.00
37678;DHT22;23517;50.390;8.616;2023-06-26T09:34:01;36.40;11.60
37678;DHT22;23517;50.390;8.616;2023-06-26T09:36:29;36.70;11.80
37678;DHT22;23517;50.390;8.616;2023-06-26T09:39:03;37.50;10.70
37678;DHT22;23517;50.390;8.616;2023-06-26T09:41:35;37.50;10.50
37678;DHT22;23517;50.390;8.616;2023-06-26T09:44:02;37.90;10.40
37678;DHT22;23517;50.390;8.616;2023-06-26T09:46:30;37.90;10.00
37678;DHT22;23517;50.390;8.616;2023-06-26T09:49:05;37.50;10.70
37678;DHT22;23517;50.390;8.616;2023-06-26T09:51:34;36.40;10.30
37678;DHT22;23517;50.390;8.616;2023-06-26T09:54:03;35.00;11.60
37678;DHT22;23517;50.390;8.616;2023-06-26T09:56:33;34.30;12.40
37678;DHT22;23517;50.390;8.616;2023-06-26T09:59:02;33.20;12.90
37678;DHT22;23517;50.390;8.616;2023-06-26T10:01:32;32.30;13.60
37678;DHT22;23517;50.390;8.616;2023-06-26T10:04:00;31.80;14.20
37678;DHT22;23517;50.390;8.616;2023-06-26T10:06:41;31.20;15.40
37678;DHT22;23517;50.390;8.616;2023-06-26T10:09:13;30.90;15.30
37678;DHT22;23517;50.390;8.616;2023-06-26T10:14:34;31.00;16.30
37678;DHT22;23517;50.390;8.616;2023-06-26T10:17:16;30.80;15.70
37678;DHT22;23517;50.390;8.616;2023-06-26T10:19:47;30.80;16.20
37678;DHT22;23517;50.390;8.616;2023-06-26T10:22:17;31.00;16.20
37678;DHT22;23517;50.390;8.616;2023-06-26T10:24:45;31.10;16.50
37678;DHT22;23517;50.390;8.616;2023-06-26T10:27:19;31.00;16.20
37678;DHT22;23517;50.390;8.616;2023-06-26T10:29:54;30.70;16.40
37678;DHT22;23517;50.390;8.616;2023-06-26T10:32:25;30.60;16.80
37678;DHT22;23517;50.390;8.616;2023-06-26T10:34:53;30.50;17.50
37678;DHT22;23517;50.390;8.616;2023-06-26T10:37:21;30.30;17.70
37678;DHT22;23517;50.390;8.616;2023-06-26T10:40:07;30.60;17.50
37678;DHT22;23517;50.390;8.616;2023-06-26T10:42:36;30.60;16.80
37678;DHT22;23517;50.390;8.616;2023-06-26T10:45:20;30.50;17.20
37678;DHT22;23517;50.390;8.616;2023-06-26T10:47:49;30.30;17.60
37678;DHT22;23517;50.390;8.616;2023-06-26T10:50:28;30.40;17.20
37678;DHT22;23517;50.390;8.616;2023-06-26T10:53:21;30.40;17.50
37678;DHT22;23517;50.390;8.616;2023-06-26T10:56:04;30.30;18.30
37678;DHT22;23517;50.390;8.616;2023-06-26T11:01:19;29.70;19.50
37678;DHT22;23517;50.390;8.616;2023-06-26T11:04:05;29.80;18.90
37678;DHT22;23517;50.390;8.616;2023-06-26T11:06:33;29.80;19.10
37678;DHT22;23517;50.390;8.616;2023-06-26T11:09:10;29.90;19.10
37678;DHT22;23517;50.390;8.616;2023-06-26T11:14:22;29.10;19.80
37678;DHT22;23517;50.390;8.616;2023-06-26T11:16:49;29.00;19.90
37678;DHT22;23517;50.390;8.616;2023-06-26T11:19:17;29.00;20.00
37678;DHT22;23517;50.390;8.616;2023-06-26T11:21:45;29.10;19.40
37678;DHT22;23517;50.390;8.616;2023-06-26T11:24:13;28.90;19.50
37678;DHT22;23517;50.390;8.616;2023-06-26T11:26:41;29.20;19.80
37678;DHT22;23517;50.390;8.616;2023-06-26T11:29:10;29.20;19.40
37678;DHT22;23517;50.390;8.616;2023-06-26T11:31:39;29.00;19.50
37678;DHT22;23517;50.390;8.616;2023-06-26T11:34:08;28.90;19.10
37678;DHT22;23517;50.390;8.616;2023-06-26T11:36:39;28.80;19.10
37678;DHT22;23517;50.390;8.616;2023-06-26T11:39:08;28.60;19.80
37678;DHT22;23517;50.390;8.616;2023-06-26T11:41:37;28.70;19.70
37678;DHT22;23517;50.390;8.616;2023-06-26T11:44:09;28.80;19.70
37678;DHT22;23517;50.390;8.616;2023-06-26T11:46:37;28.80;19.50
37678;DHT22;23517;50.390;8.616;2023-06-26T11:49:08;28.80;19.50
37678;DHT22;23517;50.390;8.616;2023-06-26T11:51:35;28.50;20.20
37678;DHT22;23517;50.390;8.616;2023-06-26T11:54:05;28.60;20.70
37678;DHT22;23517;50.390;8.616;2023-06-26T11:56:32;28.60;20.00
37678;DHT22;23517;50.390;8.616;2023-06-26T11:59:01;28.60;19.80
37678;DHT22;23517;50.390;8.616;2023-06-26T12:01:35;28.50;20.00
37678;DHT22;23517;50.390;8.616;2023-06-26T12:04:07;28.40;19.90
37678;DHT22;23517;50.390;8.616;2023-06-26T12:06:37;28.40;20.40
37678;DHT22;23517;50.390;8.616;2023-06-26T12:09:09;28.40;20.30
37678;DHT22;23517;50.390;8.616;2023-06-26T12:11:39;28.50;20.00
37678;DHT22;23517;50.390;8.616;2023-06-26T12:14:08;28.20;20.40
37678;DHT22;23517;50.390;8.616;2023-06-26T12:16:36;28.30;20.40
37678;DHT22;23517;50.390;8.616;2023-06-26T12:19:04;28.30;20.50
37678;DHT22;23517;50.390;8.616;2023-06-26T12:24:04;28.20;20.90
37678;DHT22;23517;50.390;8.616;2023-06-26T12:26:32;28.50;19.90
37678;DHT22;23517;50.390;8.616;2023-06-26T12:29:06;28.70;19.70
37678;DHT22;23517;50.390;8.616;2023-06-26T12:31:34;28.80;19.60
37678;DHT22;23517;50.390;8.616;2023-06-26T12:34:12;28.80;19.60
37678;DHT22;23517;50.390;8.616;2023-06-26T12:36:44;28.60;20.30
37678;DHT22;23517;50.390;8.616;2023-06-26T12:39:13;28.70;20.00
37678;DHT22;23517;50.390;8.616;2023-06-26T12:41:57;29.00;19.30
37678;DHT22;23517;50.390;8.616;2023-06-26T12:44:30;28.80;19.30
37678;DHT22;23517;50.390;8.616;2023-06-26T12:47:00;28.40;20.00
37678;DHT22;23517;50.390;8.616;2023-06-26T12:49:38;28.20;20.30
37678;DHT22;23517;50.390;8.616;2023-06-26T12:52:15;28.30;20.30
37678;DHT22;23517;50.390;8.616;2023-06-26T12:54:43;28.30;20.70
37678;DHT22;23517;50.390;8.616;2023-06-26T12:57:10;28.20;19.80
37678;DHT22;23517;50.390;8.616;2023-06-26T12:59:38;28.00;20.50
37678;DHT22;23517;50.390;8.616;2023-06-26T13:02:05;28.00;21.00
37678;DHT22;23517;50.390;8.616;2023-06-26T13:04:33;28.20;20.30
37678;DHT22;23517;50.390;8.616;2023-06-26T13:07:00;28.30;19.20
37678;DHT22;23517;50.390;8.616;2023-06-26T13:09:26;28.30;19.80
37678;DHT22;23517;50.390;8.616;2023-06-26T13:11:54;28.40;19.80
37678;DHT22;23517;50.390;8.616;2023-06-26T13:14:21;28.20;20.00
37678;DHT22;23517;50.390;8.616;2023-06-26T13:16:48;28.00;20.00
37678;DHT22;23517;50.390;8.616;2023-06-26T13:19:15;28.00;19.90
37678;DHT22;23517;50.390;8.616;2023-06-26T13:21:43;28.10;20.00
37678;DHT22;23517;50.390;8.616;2023-06-26T13:24:09;28.40;19.70
37678;DHT22;23517;50.390;8.616;2023-06-26T13:26:36;28.40;18.80
37678;DHT22;23517;50.390;8.616;2023-06-26T13:29:04;28.40;19.10
37678;DHT22;23517;50.390;8.616;2023-06-26T13:31:32;28.30;19.00
37678;DHT22;23517;50.390;8.616;2023-06-26T13:34:02;28.30;19.00
37678;DHT22;23517;50.390;8.616;2023-06-26T13:36:30;28.30;18.50
37678;DHT22;23517;50.390;8.616;2023-06-26T13:39:01;28.40;18.10
37678;DHT22;23517;50.390;8.616;2023-06-26T13:41:29;28.50;17.80
37678;DHT22;23517;50.390;8.616;2023-06-26T13:43:56;28.40;17.30
37678;DHT22;23517;50.390;8.616;2023-06-26T13:46:37;28.40;17.60
37678;DHT22;23517;50.390;8.616;2023-06-26T13:49:04;28.30;18.00
37678;DHT22;23517;50.390;8.616;2023-06-26T13:51:31;28.10;18.00
37678;DHT22;23517;50.390;8.616;2023-06-26T13:53:58;28.10;18.20
37678;DHT22;23517;50.390;8.616;2023-06-26T13:56:27;28.30;17.20
37678;DHT22;23517;50.390;8.616;2023-06-26T13:58:57;28.30;16.40
37678;DHT22;23517;50.390;8.616;2023-06-26T14:01:25;28.10;16.70
37678;DHT22;23517;50.390;8.616;2023-06-26T14:03:51;28.00;16.80
37678;DHT22;23517;50.390;8.616;2023-06-26T14:06:18;27.70;16.20
37678;DHT22;23517;50.390;8.616;2023-06-26T14:08:45;27.60;16.40
37678;DHT22;23517;50.390;8.616;2023-06-26T14:11:11;27.60;16.50
37678;DHT22;23517;50.390;8.616;2023-06-26T14:13:38;27.60;15.70
37678;DHT22;23517;50.390;8.616;2023-06-26T14:16:05;27.70;15.00
37678;DHT22;23517;50.390;8.616;2023-06-26T14:18:32;27.70;15.10
37678;DHT22;23517;50.390;8.616;2023-06-26T14:20:59;27.70;14.60
37678;DHT22;23517;50.390;8.616;2023-06-26T14:23:26;27.80;14.30
37678;DHT22;23517;50.390;8.616;2023-06-26T14:25:53;27.80;14.30
37678;DHT22;23517;50.390;8.616;2023-06-26T14:28:19;27.70;14.30
37678;DHT22;23517;50.390;8.616;2023-06-26T14:30:46;27.70;14.00
37678;DHT22;23517;50.390;8.616;2023-06-26T14:33:13;27.60;13.90
37678;DHT22;23517;50.390;8.616;2023-06-26T14:35:39;27.40;14.30
37678;DHT22;23517;50.390;8.616;2023-06-26T14:38:06;27.30;14.00
37678;DHT22;23517;50.390;8.616;2023-06-26T14:40:33;27.30;14.70
37678;DHT22;23517;50.390;8.616;2023-06-26T14:43:00;27.40;14.10
37678;DHT22;23517;50.390;8.616;2023-06-26T14:45:27;27.40;14.20
37678;DHT22;23517;50.390;8.616;2023-06-26T14:47:54;27.50;13.80
37678;DHT22;23517;50.390;8.616;2023-06-26T14:50:21;27.40;13.80
37678;DHT22;23517;50.390;8.616;2023-06-26T14:52:48;27.60;13.60
37678;DHT22;23517;50.390;8.616;2023-06-26T14:55:14;27.40;13.60
37678;DHT22;23517;50.390;8.616;2023-06-26T15:00:09;27.20;13.50
37678;DHT22;23517;50.390;8.616;2023-06-26T15:02:38;27.30;14.10
37678;DHT22;23517;50.390;8.616;2023-06-26T15:05:05;27.30;14.20
37678;DHT22;23517;50.390;8.616;2023-06-26T15:07:32;27.30;14.00
37678;DHT22;23517;50.390;8.616;2023-06-26T15:09:59;27.40;13.70
37678;DHT22;23517;50.390;8.616;2023-06-26T15:12:26;27.30;13.60
37678;DHT22;23517;50.390;8.616;2023-06-26T15:14:53;27.30;14.20
37678;DHT22;23517;50.390;8.616;2023-06-26T15:17:20;27.30;14.20
37678;DHT22;23517;50.390;8.616;2023-06-26T15:19:47;27.40;14.00
37678;DHT22;23517;50.390;8.616;2023-06-26T15:22:13;27.20;14.20
37678;DHT22;23517;50.390;8.616;2023-06-26T15:24:41;27.20;13.80
37678;DHT22;23517;50.390;8.616;2023-06-26T15:27:08;27.20;13.60
37678;DHT22;23517;50.390;8.616;2023-06-26T15:29:34;27.10;14.10
37678;DHT22;23517;50.390;8.616;2023-06-26T15:32:01;27.00;13.80
37678;DHT22;23517;50.390;8.616;2023-06-26T15:34:28;26.90;13.30
37678;DHT22;23517;50.390;8.616;2023-06-26T15:36:55;26.90;13.60
37678;DHT22;23517;50.390;8.616;2023-06-26T15:39:22;26.80;13.90
37678;DHT22;23517;50.390;8.616;2023-06-26T15:41:48;26.80;14.20
37678;DHT22;23517;50.390;8.616;2023-06-26T15:44:20;26.80;13.70
37678;DHT22;23517;50.390;8.616;2023-06-26T15:46:47;26.80;14.00
37678;DHT22;23517;50.390;8.616;2023-06-26T15:49:14;26.90;14.10
37678;DHT22;23517;50.390;8.616;2023-06-26T15:51:40;26.90;14.10
37678;DHT22;23517;50.390;8.616;2023-06-26T15:54:08;26.80;14.30
37678;DHT22;23517;50.390;8.616;2023-06-26T15:56:35;26.70;14.30
37678;DHT22;23517;50.390;8.616;2023-06-26T15:59:01;26.50;14.30
37678;DHT22;23517;50.390;8.616;2023-06-26T16:01:28;26.30;14.40
37678;DHT22;23517;50.390;8.616;2023-06-26T16:03:55;26.10;14.40
37678;DHT22;23517;50.390;8.616;2023-06-26T16:06:22;26.00;14.90
37678;DHT22;23517;50.390;8.616;2023-06-26T16:08:48;25.90;14.70